sensor_id;sensor_type;location;lat;lon;timestamp;temperature;humidity
3940;DHT22;1984;48.312;9.244;2022-11-30T00:02:21;5.40;99.90
3940;DHT22;1984;48.312;9.244;2022-11-30T00:04:46;5.40;99.90
3940;DHT22;1984;48.312;9.244;2022-11-30T00:07:12;5.40;99.90
3940;DHT22;1984;48.312;9.244;2022-11-30T00:09:37;5.40;99.90
3940;DHT22;1984;48.312;9.244;2022-11-30T00:12:03;5.40;99.90
3940;DHT22;1984;48.312;9.244;2022-11-30T00:14:29;5.40;99.90
3940;DHT22;1984;48.312;9.244;2022-11-30T00:16:54;5.40;99.90
3940;DHT22;1984;48.312;9.244;2022-11-30T00:19:20;5.40;99.90
3940;DHT22;1984;48.312;9.244;2022-11-30T00:21:45;5.40;99.90
3940;DHT22;1984;48.312;9.244;2022-11-30T00:24:11;5.40;99.90
3940;DHT22;1984;48.312;9.244;2022-11-30T00:26:36;5.40;99.90
3940;DHT22;1984;48.312;9.244;2022-11-30T00:29:02;5.40;99.90
3940;DHT22;1984;48.312;9.244;2022-11-30T00:31:27;5.40;99.90
3940;DHT22;1984;48.312;9.244;2022-11-30T00:33:53;5.30;99.90
3940;DHT22;1984;48.312;9.244;2022-11-30T00:36:20;5.30;99.90
3940;DHT22;1984;48.312;9.244;2022-11-30T00:38:47;5.30;99.90
3940;DHT22;1984;48.312;9.244;2022-11-30T00:41:14;5.30;99.90
3940;DHT22;1984;48.312;9.244;2022-11-30T00:43:40;5.30;99.90
3940;DHT22;1984;48.312;9.244;2022-11-30T00:46:06;5.30;99.90
3940;DHT22;1984;48.312;9.244;2022-11-30T00:48:36;5.30;99.90
3940;DHT22;1984;48.312;9.244;2022-11-30T00:51:01;5.30;99.90
3940;DHT22;1984;48.312;9.244;2022-11-30T00:53:27;5.30;99.90
3940;DHT22;1984;48.312;9.244;2022-11-30T00:55:53;5.30;99.90
3940;DHT22;1984;48.312;9.244;2022-11-30T00:58:18;5.20;99.90
3940;DHT22;1984;48.312;9.244;2022-11-30T01:00:44;5.30;99.90
3940;DHT22;1984;48.312;9.244;2022-11-30T01:03:11;5.20;99.90
3940;DHT22;1984;48.312;9.244;2022-11-30T01:05:37;5.30;99.90
3940;DHT22;1984;48.312;9.244;2022-11-30T01:08:04;5.30;99.90
3940;DHT22;1984;48.312;9.244;2022-11-30T01:10:32;5.30;99.90
3940;DHT22;1984;48.312;9.244;2022-11-30T01:12:58;5.30;99.90
3940;DHT22;1984;48.312;9.244;2022-11-30T01:15:24;5.20;99.90
3940;DHT22;1984;48.312;9.244;2022-11-30T01:17:49;5.20;99.90
3940;DHT22;1984;48.312;9.244;2022-11-30T01:20:15;5.20;99.90
3940;DHT22;1984;48.312;9.244;2022-11-30T01:22:40;5.20;99.90
3940;DHT22;1984;48.312;9.244;2022-11-30T01:25:06;5.20;99.90
3940;DHT22;1984;48.312;9.244;2022-11-30T01:27:32;5.20;99.90
3940;DHT22;1984;48.312;9.244;2022-11-30T01:29:57;5.10;99.90
3940;DHT22;1984;48.312;9.244;2022-11-30T01:32:23;5.10;99.90
3940;DHT22;1984;48.312;9.244;2022-11-30T01:34:48;5.10;99.90
3940;DHT22;1984;48.312;9.244;2022-11-30T01:37:14;5.10;99.90
3940;DHT22;1984;48.312;9.244;2022-11-30T01:39:40;5.20;99.90
3940;DHT22;1984;48.312;9.244;2022-11-30T01:42:11;5.10;99.90
3940;DHT22;1984;48.312;9.244;2022-11-30T01:44:55;5.10;99.90
3940;DHT22;1984;48.312;9.244;2022-11-30T01:47:40;5.20;99.90
3940;DHT22;1984;48.312;9.244;2022-11-30T01:50:31;5.10;99.90
3940;DHT22;1984;48.312;9.244;2022-11-30T01:52:58;5.10;99.90
3940;DHT22;1984;48.312;9.244;2022-11-30T01:55:27;5.10;99.90
3940;DHT22;1984;48.312;9.244;2022-11-30T01:57:58;5.10;99.90
3940;DHT22;1984;48.312;9.244;2022-11-30T02:00:25;5.10;99.90
3940;DHT22;1984;48.312;9.244;2022-11-30T02:05:45;5.10;99.90
3940;DHT22;1984;48.312;9.244;2022-11-30T02:08:10;5.10;99.90
3940;DHT22;1984;48.312;9.244;2022-11-30T02:10:40;5.00;99.90
3940;DHT22;1984;48.312;9.244;2022-11-30T02:13:19;5.00;99.90
3940;DHT22;1984;48.312;9.244;2022-11-30T02:18:41;5.00;99.90
3940;DHT22;1984;48.312;9.244;2022-11-30T02:24:04;5.00;99.90
3940;DHT22;1984;48.312;9.244;2022-11-30T02:27:14;4.90;99.90
3940;DHT22;1984;48.312;9.244;2022-11-30T02:32:32;5.00;99.90
3940;DHT22;1984;48.312;9.244;2022-11-30T02:35:00;5.00;99.90
3940;DHT22;1984;48.312;9.244;2022-11-30T02:37:27;5.00;99.90
3940;DHT22;1984;48.312;9.244;2022-11-30T02:39:54;5.00;99.90
3940;DHT22;1984;48.312;9.244;2022-11-30T02:42:19;5.00;99.90
3940;DHT22;1984;48.312;9.244;2022-11-30T02:44:50;5.00;99.90
3940;DHT22;1984;48.312;9.244;2022-11-30T02:47:20;4.90;99.90
3940;DHT22;1984;48.312;9.244;2022-11-30T02:50:03;4.90;99.90
3940;DHT22;1984;48.312;9.244;2022-11-30T02:52:29;4.90;99.90
3940;DHT22;1984;48.312;9.244;2022-11-30T02:55:03;4.90;99.90
3940;DHT22;1984;48.312;9.244;2022-11-30T02:57:30;5.00;99.90
3940;DHT22;1984;48.312;9.244;2022-11-30T02:59:56;5.00;99.90
3940;DHT22;1984;48.312;9.244;2022-11-30T03:02:23;5.00;99.90
3940;DHT22;1984;48.312;9.244;2022-11-30T03:04:49;5.00;99.90
3940;DHT22;1984;48.312;9.244;2022-11-30T03:07:14;5.00;99.90
3940;DHT22;1984;48.312;9.244;2022-11-30T03:09:40;5.10;99.90
3940;DHT22;1984;48.312;9.244;2022-11-30T03:12:05;5.00;99.90
3940;DHT22;1984;48.312;9.244;2022-11-30T03:14:31;5.00;99.90
3940;DHT22;1984;48.312;9.244;2022-11-30T03:16:57;5.00;99.90
3940;DHT22;1984;48.312;9.244;2022-11-30T03:19:22;5.00;99.90
3940;DHT22;1984;48.312;9.244;2022-11-30T03:21:48;4.90;99.90
3940;DHT22;1984;48.312;9.244;2022-11-30T03:24:13;4.90;99.90
3940;DHT22;1984;48.312;9.244;2022-11-30T03:26:39;4.90;99.90
3940;DHT22;1984;48.312;9.244;2022-11-30T03:29:04;4.90;99.90
3940;DHT22;1984;48.312;9.244;2022-11-30T03:31:30;4.90;99.90
3940;DHT22;1984;48.312;9.244;2022-11-30T03:33:56;4.90;99.90
3940;DHT22;1984;48.312;9.244;2022-11-30T03:36:21;4.90;99.90
3940;DHT22;1984;48.312;9.244;2022-11-30T03:38:47;5.00;99.90
3940;DHT22;1984;48.312;9.244;2022-11-30T03:41:14;5.00;99.90
3940;DHT22;1984;48.312;9.244;2022-11-30T03:43:44;5.00;99.90
3940;DHT22;1984;48.312;9.244;2022-11-30T03:46:10;5.00;99.90
3940;DHT22;1984;48.312;9.244;2022-11-30T03:48:36;5.00;99.90
3940;DHT22;1984;48.312;9.244;2022-11-30T03:51:03;5.00;99.90
3940;DHT22;1984;48.312;9.244;2022-11-30T03:53:28;5.00;99.90
3940;DHT22;1984;48.312;9.244;2022-11-30T03:55:57;5.00;99.90
3940;DHT22;1984;48.312;9.244;2022-11-30T03:58:23;5.00;99.90
3940;DHT22;1984;48.312;9.244;2022-11-30T04:00:56;5.00;99.90
3940;DHT22;1984;48.312;9.244;2022-11-30T04:03:22;5.00;99.90
3940;DHT22;1984;48.312;9.244;2022-11-30T04:05:48;5.00;99.90
3940;DHT22;1984;48.312;9.244;2022-11-30T04:08:13;5.00;99.90
3940;DHT22;1984;48.312;9.244;2022-11-30T04:10:39;5.10;99.90
3940;DHT22;1984;48.312;9.244;2022-11-30T04:13:04;5.10;99.90
3940;DHT22;1984;48.312;9.244;2022-11-30T04:15:30;5.10;99.90
3940;DHT22;1984;48.312;9.244;2022-11-30T04:17:55;5.10;99.90
3940;DHT22;1984;48.312;9.244;2022-11-30T04:20:21;5.10;99.90
3940;DHT22;1984;48.312;9.244;2022-11-30T04:22:46;5.10;99.90
3940;DHT22;1984;48.312;9.244;2022-11-30T04:25:12;5.10;99.90
3940;DHT22;1984;48.312;9.244;2022-11-30T04:27:37;5.10;99.90
3940;DHT22;1984;48.312;9.244;2022-11-30T04:30:03;5.00;99.90
3940;DHT22;1984;48.312;9.244;2022-11-30T04:32:30;5.00;99.90
3940;DHT22;1984;48.312;9.244;2022-11-30T04:34:55;5.00;99.90
3940;DHT22;1984;48.312;9.244;2022-11-30T04:37:21;5.00;99.90
3940;DHT22;1984;48.312;9.244;2022-11-30T04:39:46;5.00;99.90
3940;DHT22;1984;48.312;9.244;2022-11-30T04:42:12;4.90;99.90
3940;DHT22;1984;48.312;9.244;2022-11-30T04:44:38;4.90;99.90
3940;DHT22;1984;48.312;9.244;2022-11-30T04:47:03;4.90;99.90
3940;DHT22;1984;48.312;9.244;2022-11-30T04:49:29;4.90;99.90
3940;DHT22;1984;48.312;9.244;2022-11-30T04:51:54;4.80;99.90
3940;DHT22;1984;48.312;9.244;2022-11-30T04:54:20;4.80;99.90
3940;DHT22;1984;48.312;9.244;2022-11-30T04:56:45;4.80;99.90
3940;DHT22;1984;48.312;9.244;2022-11-30T04:59:11;4.70;99.90
3940;DHT22;1984;48.312;9.244;2022-11-30T05:01:36;4.70;99.90
3940;DHT22;1984;48.312;9.244;2022-11-30T05:04:02;4.70;99.90
3940;DHT22;1984;48.312;9.244;2022-11-30T05:06:27;4.70;99.90
3940;DHT22;1984;48.312;9.244;2022-11-30T05:08:53;4.70;99.90
3940;DHT22;1984;48.312;9.244;2022-11-30T05:11:18;4.70;99.90
3940;DHT22;1984;48.312;9.244;2022-11-30T05:13:44;4.70;99.90
3940;DHT22;1984;48.312;9.244;2022-11-30T05:16:09;4.70;99.90
3940;DHT22;1984;48.312;9.244;2022-11-30T05:18:35;4.70;99.90
3940;DHT22;1984;48.312;9.244;2022-11-30T05:21:01;4.70;99.90
3940;DHT22;1984;48.312;9.244;2022-11-30T05:23:27;4.70;99.90
3940;DHT22;1984;48.312;9.244;2022-11-30T05:25:53;4.70;99.90
3940;DHT22;1984;48.312;9.244;2022-11-30T05:28:18;4.70;99.90
3940;DHT22;1984;48.312;9.244;2022-11-30T05:30:44;4.70;99.90
3940;DHT22;1984;48.312;9.244;2022-11-30T05:33:10;4.60;99.90
3940;DHT22;1984;48.312;9.244;2022-11-30T05:35:36;4.60;99.90
3940;DHT22;1984;48.312;9.244;2022-11-30T05:38:02;4.60;99.90
3940;DHT22;1984;48.312;9.244;2022-11-30T05:40:27;4.70;99.90
3940;DHT22;1984;48.312;9.244;2022-11-30T05:42:56;4.70;99.90
3940;DHT22;1984;48.312;9.244;2022-11-30T05:45:22;4.60;99.90
3940;DHT22;1984;48.312;9.244;2022-11-30T05:47:47;4.60;99.90
3940;DHT22;1984;48.312;9.244;2022-11-30T05:50:13;4.40;99.90
3940;DHT22;1984;48.312;9.244;2022-11-30T05:52:39;4.30;99.90
3940;DHT22;1984;48.312;9.244;2022-11-30T05:55:05;4.10;99.90
3940;DHT22;1984;48.312;9.244;2022-11-30T05:57:30;4.20;99.90
3940;DHT22;1984;48.312;9.244;2022-11-30T05:59:56;4.20;99.90
3940;DHT22;1984;48.312;9.244;2022-11-30T06:02:21;4.10;99.90
3940;DHT22;1984;48.312;9.244;2022-11-30T06:04:47;4.00;99.90
3940;DHT22;1984;48.312;9.244;2022-11-30T06:07:12;3.90;99.90
3940;DHT22;1984;48.312;9.244;2022-11-30T06:09:38;3.90;99.90
3940;DHT22;1984;48.312;9.244;2022-11-30T06:12:04;3.80;99.90
3940;DHT22;1984;48.312;9.244;2022-11-30T06:14:29;3.90;99.90
3940;DHT22;1984;48.312;9.244;2022-11-30T06:16:55;3.80;99.90
3940;DHT22;1984;48.312;9.244;2022-11-30T06:19:20;3.80;99.90
3940;DHT22;1984;48.312;9.244;2022-11-30T06:21:46;3.80;99.90
3940;DHT22;1984;48.312;9.244;2022-11-30T06:24:11;3.90;99.90
3940;DHT22;1984;48.312;9.244;2022-11-30T06:26:37;3.90;99.90
3940;DHT22;1984;48.312;9.244;2022-11-30T06:29:02;3.90;99.90
3940;DHT22;1984;48.312;9.244;2022-11-30T06:31:29;3.90;99.90
3940;DHT22;1984;48.312;9.244;2022-11-30T06:33:56;3.90;99.90
3940;DHT22;1984;48.312;9.244;2022-11-30T06:36:22;4.00;99.90
3940;DHT22;1984;48.312;9.244;2022-11-30T06:38:48;3.90;99.90
3940;DHT22;1984;48.312;9.244;2022-11-30T06:41:13;3.80;99.90
3940;DHT22;1984;48.312;9.244;2022-11-30T06:43:39;3.80;99.90
3940;DHT22;1984;48.312;9.244;2022-11-30T06:46:06;3.70;99.90
3940;DHT22;1984;48.312;9.244;2022-11-30T06:48:32;3.70;99.90
3940;DHT22;1984;48.312;9.244;2022-11-30T06:50:57;3.70;99.90
3940;DHT22;1984;48.312;9.244;2022-11-30T06:53:23;3.80;99.90
3940;DHT22;1984;48.312;9.244;2022-11-30T06:55:49;3.80;99.90
3940;DHT22;1984;48.312;9.244;2022-11-30T06:58:14;3.90;99.90
3940;DHT22;1984;48.312;9.244;2022-11-30T07:00:40;4.00;99.90
3940;DHT22;1984;48.312;9.244;2022-11-30T07:03:06;4.10;99.90
3940;DHT22;1984;48.312;9.244;2022-11-30T07:05:37;4.20;99.90
3940;DHT22;1984;48.312;9.244;2022-11-30T07:08:04;4.30;99.90
3940;DHT22;1984;48.312;9.244;2022-11-30T07:10:29;4.40;99.90
3940;DHT22;1984;48.312;9.244;2022-11-30T07:12:55;4.40;99.90
3940;DHT22;1984;48.312;9.244;2022-11-30T07:15:20;4.40;99.90
3940;DHT22;1984;48.312;9.244;2022-11-30T07:17:46;4.40;99.90
3940;DHT22;1984;48.312;9.244;2022-11-30T07:20:12;4.50;99.90
3940;DHT22;1984;48.312;9.244;2022-11-30T07:22:37;4.60;99.90
3940;DHT22;1984;48.312;9.244;2022-11-30T07:25:03;4.70;99.90
3940;DHT22;1984;48.312;9.244;2022-11-30T07:27:47;4.70;99.90
3940;DHT22;1984;48.312;9.244;2022-11-30T07:30:13;4.50;99.90
3940;DHT22;1984;48.312;9.244;2022-11-30T07:32:38;4.50;99.90
3940;DHT22;1984;48.312;9.244;2022-11-30T07:35:04;4.40;99.90
3940;DHT22;1984;48.312;9.244;2022-11-30T07:37:29;4.40;99.90
3940;DHT22;1984;48.312;9.244;2022-11-30T07:39:55;4.40;99.90
3940;DHT22;1984;48.312;9.244;2022-11-30T07:42:20;4.40;99.90
3940;DHT22;1984;48.312;9.244;2022-11-30T07:44:47;4.40;99.90
3940;DHT22;1984;48.312;9.244;2022-11-30T07:47:14;4.40;99.90
3940;DHT22;1984;48.312;9.244;2022-11-30T07:49:40;4.40;99.90
3940;DHT22;1984;48.312;9.244;2022-11-30T07:52:05;4.40;99.90
3940;DHT22;1984;48.312;9.244;2022-11-30T07:54:31;4.40;99.90
3940;DHT22;1984;48.312;9.244;2022-11-30T07:56:57;4.50;99.90
3940;DHT22;1984;48.312;9.244;2022-11-30T07:59:22;4.50;99.90
3940;DHT22;1984;48.312;9.244;2022-11-30T08:01:48;4.60;99.90
3940;DHT22;1984;48.312;9.244;2022-11-30T08:04:13;4.70;99.90
3940;DHT22;1984;48.312;9.244;2022-11-30T08:06:39;4.70;99.90
3940;DHT22;1984;48.312;9.244;2022-11-30T08:09:05;4.80;99.90
3940;DHT22;1984;48.312;9.244;2022-11-30T08:11:33;4.80;99.90
3940;DHT22;1984;48.312;9.244;2022-11-30T08:13:59;4.90;99.90
3940;DHT22;1984;48.312;9.244;2022-11-30T08:16:27;4.90;99.90
3940;DHT22;1984;48.312;9.244;2022-11-30T08:18:55;4.90;99.90
3940;DHT22;1984;48.312;9.244;2022-11-30T08:21:21;5.00;99.90
3940;DHT22;1984;48.312;9.244;2022-11-30T08:23:49;5.00;99.90
3940;DHT22;1984;48.312;9.244;2022-11-30T08:26:21;5.10;99.90
3940;DHT22;1984;48.312;9.244;2022-11-30T08:28:48;5.10;99.90
3940;DHT22;1984;48.312;9.244;2022-11-30T08:31:20;5.00;99.90
3940;DHT22;1984;48.312;9.244;2022-11-30T08:33:46;5.00;99.90
3940;DHT22;1984;48.312;9.244;2022-11-30T08:36:16;5.00;99.90
3940;DHT22;1984;48.312;9.244;2022-11-30T08:38:43;5.00;99.90
3940;DHT22;1984;48.312;9.244;2022-11-30T08:41:11;5.10;99.90
3940;DHT22;1984;48.312;9.244;2022-11-30T08:43:37;5.10;99.90
3940;DHT22;1984;48.312;9.244;2022-11-30T08:46:06;5.10;99.90
3940;DHT22;1984;48.312;9.244;2022-11-30T08:48:32;5.00;99.90
3940;DHT22;1984;48.312;9.244;2022-11-30T08:51:00;5.00;99.90
3940;DHT22;1984;48.312;9.244;2022-11-30T08:53:25;5.00;99.90
3940;DHT22;1984;48.312;9.244;2022-11-30T08:55:58;5.10;99.90
3940;DHT22;1984;48.312;9.244;2022-11-30T08:58:25;5.10;99.90
3940;DHT22;1984;48.312;9.244;2022-11-30T09:00:50;5.20;99.90
3940;DHT22;1984;48.312;9.244;2022-11-30T09:03:16;5.40;99.90
3940;DHT22;1984;48.312;9.244;2022-11-30T09:05:41;5.50;99.90
3940;DHT22;1984;48.312;9.244;2022-11-30T09:08:07;5.40;99.90
3940;DHT22;1984;48.312;9.244;2022-11-30T09:10:32;5.40;99.90
3940;DHT22;1984;48.312;9.244;2022-11-30T09:12:58;5.20;99.90
3940;DHT22;1984;48.312;9.244;2022-11-30T09:15:23;5.10;99.90
3940;DHT22;1984;48.312;9.244;2022-11-30T09:17:49;5.00;99.90
3940;DHT22;1984;48.312;9.244;2022-11-30T09:20:15;5.00;99.90
3940;DHT22;1984;48.312;9.244;2022-11-30T09:22:40;4.90;99.90
3940;DHT22;1984;48.312;9.244;2022-11-30T09:25:06;5.00;99.90
3940;DHT22;1984;48.312;9.244;2022-11-30T09:27:32;5.00;99.90
3940;DHT22;1984;48.312;9.244;2022-11-30T09:29:58;5.00;99.90
3940;DHT22;1984;48.312;9.244;2022-11-30T09:32:24;5.00;99.90
3940;DHT22;1984;48.312;9.244;2022-11-30T09:34:49;5.00;99.90
3940;DHT22;1984;48.312;9.244;2022-11-30T09:37:15;5.00;99.90
3940;DHT22;1984;48.312;9.244;2022-11-30T09:39:40;5.00;99.90
3940;DHT22;1984;48.312;9.244;2022-11-30T09:44:59;5.00;99.90
3940;DHT22;1984;48.312;9.244;2022-11-30T09:50:18;4.80;99.90
3940;DHT22;1984;48.312;9.244;2022-11-30T09:52:51;4.70;99.90
3940;DHT22;1984;48.312;9.244;2022-11-30T09:55:28;4.80;99.90
3940;DHT22;1984;48.312;9.244;2022-11-30T09:57:58;4.80;99.90
3940;DHT22;1984;48.312;9.244;2022-11-30T10:00:25;4.80;99.90
3940;DHT22;1984;48.312;9.244;2022-11-30T10:02:53;4.80;99.90
3940;DHT22;1984;48.312;9.244;2022-11-30T10:05:26;4.80;99.90
3940;DHT22;1984;48.312;9.244;2022-11-30T10:13:08;5.00;99.90
3940;DHT22;1984;48.312;9.244;2022-11-30T10:18:52;5.10;99.90
3940;DHT22;1984;48.312;9.244;2022-11-30T10:27:41;5.00;99.90
3940;DHT22;1984;48.312;9.244;2022-11-30T10:30:22;5.00;99.90
3940;DHT22;1984;48.312;9.244;2022-11-30T10:33:02;4.90;99.90
3940;DHT22;1984;48.312;9.244;2022-11-30T10:35:37;4.90;99.90
3940;DHT22;1984;48.312;9.244;2022-11-30T10:38:24;4.80;99.90
3940;DHT22;1984;48.312;9.244;2022-11-30T10:41:09;4.80;99.90
3940;DHT22;1984;48.312;9.244;2022-11-30T10:43:50;4.80;99.90
3940;DHT22;1984;48.312;9.244;2022-11-30T10:46:20;4.90;99.90
3940;DHT22;1984;48.312;9.244;2022-11-30T10:49:06;4.80;99.90
3940;DHT22;1984;48.312;9.244;2022-11-30T10:51:39;4.60;99.90
3940;DHT22;1984;48.312;9.244;2022-11-30T10:54:18;4.60;99.90
3940;DHT22;1984;48.312;9.244;2022-11-30T10:56:45;4.70;99.90
3940;DHT22;1984;48.312;9.244;2022-11-30T10:59:26;4.70;99.90
3940;DHT22;1984;48.312;9.244;2022-11-30T11:01:54;4.70;99.90
3940;DHT22;1984;48.312;9.244;2022-11-30T11:04:26;4.70;99.90
3940;DHT22;1984;48.312;9.244;2022-11-30T11:07:08;4.70;99.90
3940;DHT22;1984;48.312;9.244;2022-11-30T11:09:38;4.60;99.90
3940;DHT22;1984;48.312;9.244;2022-11-30T11:14:40;4.70;99.90
3940;DHT22;1984;48.312;9.244;2022-11-30T11:17:23;4.70;99.90
3940;DHT22;1984;48.312;9.244;2022-11-30T11:19:50;4.70;99.90
3940;DHT22;1984;48.312;9.244;2022-11-30T11:22:24;4.60;99.90
3940;DHT22;1984;48.312;9.244;2022-11-30T11:24:53;4.60;99.90
3940;DHT22;1984;48.312;9.244;2022-11-30T11:27:31;4.60;99.90
3940;DHT22;1984;48.312;9.244;2022-11-30T11:32:26;4.40;99.90
3940;DHT22;1984;48.312;9.244;2022-11-30T11:34:52;4.30;99.90
3940;DHT22;1984;48.312;9.244;2022-11-30T11:37:31;4.40;99.90
3940;DHT22;1984;48.312;9.244;2022-11-30T11:40:16;4.50;99.90
3940;DHT22;1984;48.312;9.244;2022-11-30T11:45:21;4.40;99.90
3940;DHT22;1984;48.312;9.244;2022-11-30T11:47:58;4.40;99.90
3940;DHT22;1984;48.312;9.244;2022-11-30T11:50:32;4.30;99.90
3940;DHT22;1984;48.312;9.244;2022-11-30T11:53:19;4.20;99.90
3940;DHT22;1984;48.312;9.244;2022-11-30T11:55:50;4.20;99.90
3940;DHT22;1984;48.312;9.244;2022-11-30T11:58:24;4.30;99.90
3940;DHT22;1984;48.312;9.244;2022-11-30T12:00:51;4.30;99.90
3940;DHT22;1984;48.312;9.244;2022-11-30T12:03:33;4.30;99.90
3940;DHT22;1984;48.312;9.244;2022-11-30T12:06:09;4.20;99.90
3940;DHT22;1984;48.312;9.244;2022-11-30T12:08:53;4.20;99.90
3940;DHT22;1984;48.312;9.244;2022-11-30T12:13:52;4.30;99.90
3940;DHT22;1984;48.312;9.244;2022-11-30T12:26:39;4.00;99.90
3940;DHT22;1984;48.312;9.244;2022-11-30T12:29:18;4.10;99.90
3940;DHT22;1984;48.312;9.244;2022-11-30T12:32:12;4.10;99.90
3940;DHT22;1984;48.312;9.244;2022-11-30T12:46:13;4.40;99.90
3940;DHT22;1984;48.312;9.244;2022-11-30T12:49:22;4.40;99.90
3940;DHT22;1984;48.312;9.244;2022-11-30T12:52:44;4.40;99.90
3940;DHT22;1984;48.312;9.244;2022-11-30T12:55:03;4.40;99.90
3940;DHT22;1984;48.312;9.244;2022-11-30T12:57:41;4.40;99.90
3940;DHT22;1984;48.312;9.244;2022-11-30T13:00:18;4.40;99.90
3940;DHT22;1984;48.312;9.244;2022-11-30T13:05:49;4.40;99.90
3940;DHT22;1984;48.312;9.244;2022-11-30T13:11:54;4.50;99.90
3940;DHT22;1984;48.312;9.244;2022-11-30T13:14:17;4.40;99.90
3940;DHT22;1984;48.312;9.244;2022-11-30T13:16:45;4.40;99.90
3940;DHT22;1984;48.312;9.244;2022-11-30T13:22:22;4.30;99.90
3940;DHT22;1984;48.312;9.244;2022-11-30T13:24:56;4.30;99.90
3940;DHT22;1984;48.312;9.244;2022-11-30T13:27:31;4.40;99.90
3940;DHT22;1984;48.312;9.244;2022-11-30T13:30:35;4.30;99.90
3940;DHT22;1984;48.312;9.244;2022-11-30T13:36:20;4.10;99.90
3940;DHT22;1984;48.312;9.244;2022-11-30T13:41:44;4.20;99.90
3940;DHT22;1984;48.312;9.244;2022-11-30T13:44:30;4.30;99.90
3940;DHT22;1984;48.312;9.244;2022-11-30T13:46:56;4.30;99.90
3940;DHT22;1984;48.312;9.244;2022-11-30T13:49:27;4.30;99.90
3940;DHT22;1984;48.312;9.244;2022-11-30T13:51:54;4.20;99.90
3940;DHT22;1984;48.312;9.244;2022-11-30T13:57:14;4.20;99.90
3940;DHT22;1984;48.312;9.244;2022-11-30T13:59:51;4.20;99.90
3940;DHT22;1984;48.312;9.244;2022-11-30T14:13:22;4.00;99.90
3940;DHT22;1984;48.312;9.244;2022-11-30T14:15:51;4.00;99.90
3940;DHT22;1984;48.312;9.244;2022-11-30T14:26:39;4.30;99.90
3940;DHT22;1984;48.312;9.244;2022-11-30T14:31:49;4.20;99.90
3940;DHT22;1984;48.312;9.244;2022-11-30T14:34:27;4.10;99.90
3940;DHT22;1984;48.312;9.244;2022-11-30T14:37:00;4.10;99.90
3940;DHT22;1984;48.312;9.244;2022-11-30T14:39:32;4.10;99.90
3940;DHT22;1984;48.312;9.244;2022-11-30T14:41:59;4.20;99.90
3940;DHT22;1984;48.312;9.244;2022-11-30T14:44:27;4.20;99.90
3940;DHT22;1984;48.312;9.244;2022-11-30T14:46:52;4.20;99.90
3940;DHT22;1984;48.312;9.244;2022-11-30T14:49:21;4.00;99.90
3940;DHT22;1984;48.312;9.244;2022-11-30T14:52:01;3.90;99.90
3940;DHT22;1984;48.312;9.244;2022-11-30T14:54:55;3.80;99.90
3940;DHT22;1984;48.312;9.244;2022-11-30T15:00:13;3.70;99.90
3940;DHT22;1984;48.312;9.244;2022-11-30T15:02:42;3.70;99.90
3940;DHT22;1984;48.312;9.244;2022-11-30T15:05:14;3.70;99.90
3940;DHT22;1984;48.312;9.244;2022-11-30T15:07:42;3.80;99.90
3940;DHT22;1984;48.312;9.244;2022-11-30T15:10:23;3.70;99.90
3940;DHT22;1984;48.312;9.244;2022-11-30T15:12:51;3.70;99.90
3940;DHT22;1984;48.312;9.244;2022-11-30T15:15:22;3.70;99.90
3940;DHT22;1984;48.312;9.244;2022-11-30T15:20:19;3.70;99.90
3940;DHT22;1984;48.312;9.244;2022-11-30T15:22:45;3.70;99.90
3940;DHT22;1984;48.312;9.244;2022-11-30T15:25:11;3.70;99.90
3940;DHT22;1984;48.312;9.244;2022-11-30T15:27:37;3.70;99.90
3940;DHT22;1984;48.312;9.244;2022-11-30T15:30:03;3.70;99.90
3940;DHT22;1984;48.312;9.244;2022-11-30T15:32:28;3.70;99.90
3940;DHT22;1984;48.312;9.244;2022-11-30T15:34:58;3.70;99.90
3940;DHT22;1984;48.312;9.244;2022-11-30T15:37:30;3.70;99.90
3940;DHT22;1984;48.312;9.244;2022-11-30T15:39:58;3.80;99.90
3940;DHT22;1984;48.312;9.244;2022-11-30T15:42:31;3.80;99.90
3940;DHT22;1984;48.312;9.244;2022-11-30T15:45:14;3.80;99.90
3940;DHT22;1984;48.312;9.244;2022-11-30T15:47:42;3.80;99.90
3940;DHT22;1984;48.312;9.244;2022-11-30T15:53:03;3.80;99.90
3940;DHT22;1984;48.312;9.244;2022-11-30T15:55:48;3.80;99.90
3940;DHT22;1984;48.312;9.244;2022-11-30T15:58:39;3.70;99.90
3940;DHT22;1984;48.312;9.244;2022-11-30T16:04:02;3.70;99.90
3940;DHT22;1984;48.312;9.244;2022-11-30T16:06:35;3.70;99.90
3940;DHT22;1984;48.312;9.244;2022-11-30T16:09:05;3.70;99.90
3940;DHT22;1984;48.312;9.244;2022-11-30T16:11:40;3.70;99.90
3940;DHT22;1984;48.312;9.244;2022-11-30T16:14:12;3.80;99.90
3940;DHT22;1984;48.312;9.244;2022-11-30T16:16:39;3.80;99.90
3940;DHT22;1984;48.312;9.244;2022-11-30T16:19:05;3.90;99.90
3940;DHT22;1984;48.312;9.244;2022-11-30T16:21:31;3.80;99.90
3940;DHT22;1984;48.312;9.244;2022-11-30T16:23:56;3.90;99.90
3940;DHT22;1984;48.312;9.244;2022-11-30T16:26:22;3.90;99.90
3940;DHT22;1984;48.312;9.244;2022-11-30T16:28:47;4.00;99.90
3940;DHT22;1984;48.312;9.244;2022-11-30T16:31:16;4.00;99.90
3940;DHT22;1984;48.312;9.244;2022-11-30T16:33:43;3.90;99.90
3940;DHT22;1984;48.312;9.244;2022-11-30T16:36:13;4.00;99.90
3940;DHT22;1984;48.312;9.244;2022-11-30T16:38:40;4.00;99.90
3940;DHT22;1984;48.312;9.244;2022-11-30T16:43:39;3.90;99.90
3940;DHT22;1984;48.312;9.244;2022-11-30T16:46:07;3.80;99.90
3940;DHT22;1984;48.312;9.244;2022-11-30T16:48:33;3.80;99.90
3940;DHT22;1984;48.312;9.244;2022-11-30T16:51:00;3.70;99.90
3940;DHT22;1984;48.312;9.244;2022-11-30T16:53:25;3.60;99.90
3940;DHT22;1984;48.312;9.244;2022-11-30T16:55:51;3.60;99.90
3940;DHT22;1984;48.312;9.244;2022-11-30T16:58:16;3.60;99.90
3940;DHT22;1984;48.312;9.244;2022-11-30T17:00:42;3.60;99.90
3940;DHT22;1984;48.312;9.244;2022-11-30T17:03:20;3.60;99.90
3940;DHT22;1984;48.312;9.244;2022-11-30T17:05:47;3.70;99.90
3940;DHT22;1984;48.312;9.244;2022-11-30T17:08:12;3.60;99.90
3940;DHT22;1984;48.312;9.244;2022-11-30T17:10:38;3.60;99.90
3940;DHT22;1984;48.312;9.244;2022-11-30T17:13:04;3.50;99.90
3940;DHT22;1984;48.312;9.244;2022-11-30T17:15:30;3.50;99.90
3940;DHT22;1984;48.312;9.244;2022-11-30T17:17:56;3.60;99.90
3940;DHT22;1984;48.312;9.244;2022-11-30T17:20:25;3.80;99.90
3940;DHT22;1984;48.312;9.244;2022-11-30T17:22:51;3.80;99.90
3940;DHT22;1984;48.312;9.244;2022-11-30T17:25:19;3.90;99.90
3940;DHT22;1984;48.312;9.244;2022-11-30T17:27:46;4.00;99.90
3940;DHT22;1984;48.312;9.244;2022-11-30T17:30:13;4.10;99.90
3940;DHT22;1984;48.312;9.244;2022-11-30T17:32:39;4.20;99.90
3940;DHT22;1984;48.312;9.244;2022-11-30T17:35:05;4.20;99.90
3940;DHT22;1984;48.312;9.244;2022-11-30T17:37:31;4.20;99.90
3940;DHT22;1984;48.312;9.244;2022-11-30T17:39:56;4.20;99.90
3940;DHT22;1984;48.312;9.244;2022-11-30T17:42:23;4.10;99.90
3940;DHT22;1984;48.312;9.244;2022-11-30T17:44:48;4.10;99.90
3940;DHT22;1984;48.312;9.244;2022-11-30T17:47:14;4.10;99.90
3940;DHT22;1984;48.312;9.244;2022-11-30T17:49:39;4.10;99.90
3940;DHT22;1984;48.312;9.244;2022-11-30T17:52:05;4.00;99.90
3940;DHT22;1984;48.312;9.244;2022-11-30T17:54:30;3.90;99.90
3940;DHT22;1984;48.312;9.244;2022-11-30T17:56:56;4.00;99.90
3940;DHT22;1984;48.312;9.244;2022-11-30T17:59:21;4.00;99.90
3940;DHT22;1984;48.312;9.244;2022-11-30T18:01:47;4.00;99.90
3940;DHT22;1984;48.312;9.244;2022-11-30T18:04:13;3.90;99.90
3940;DHT22;1984;48.312;9.244;2022-11-30T18:06:38;3.80;99.90
3940;DHT22;1984;48.312;9.244;2022-11-30T18:09:04;3.80;99.90
3940;DHT22;1984;48.312;9.244;2022-11-30T18:11:30;3.80;99.90
3940;DHT22;1984;48.312;9.244;2022-11-30T18:13:58;3.90;99.90
3940;DHT22;1984;48.312;9.244;2022-11-30T18:16:26;3.90;99.90
3940;DHT22;1984;48.312;9.244;2022-11-30T18:18:54;3.90;99.90
3940;DHT22;1984;48.312;9.244;2022-11-30T18:21:21;3.90;99.90
3940;DHT22;1984;48.312;9.244;2022-11-30T18:23:47;3.90;99.90
3940;DHT22;1984;48.312;9.244;2022-11-30T18:26:16;3.90;99.90